Time;durP1;ratioP1;P1;durP2;ratioP2;P2;SDS_P1;SDS_P2;PMS_P1;PMS_P2;Temp;Humidity;BMP_temperature;BMP_pressure;BME280_temperature;BME280_humidity;BME280_pressure;Samples;Min_cycle;Max_cycle;Signal;HPM_P1;HPM_P2
2021/03/29 00:02:02;;;;;;;9.68;5.43;;;11.40;99.90;;;;;;5073546;28;20206;-71
2021/03/29 00:04:29;;;;;;;10.77;6.45;;;11.50;99.90;;;;;;5062051;28;20344;-71
2021/03/29 00:07:00;;;;;;;13.90;6.25;;;11.50;99.90;;;;;;5065635;28;20227;-72
2021/03/29 00:09:28;;;;;;;9.32;5.85;;;11.50;99.90;;;;;;5061420;28;20211;-71
2021/03/29 00:11:56;;;;;;;13.30;6.15;;;11.50;99.90;;;;;;5069280;28;20211;-71
2021/03/29 00:14:23;;;;;;;11.93;5.97;;;11.50;99.90;;;;;;5065618;28;20298;-71
2021/03/29 00:16:51;;;;;;;9.13;6.35;;;11.50;99.90;;;;;;5069388;28;20223;-72
2021/03/29 00:19:17;;;;;;;15.82;6.00;;;11.50;99.90;;;;;;5072494;28;20205;-71
2021/03/29 00:21:45;;;;;;;13.75;6.43;;;11.50;99.90;;;;;;5068550;28;20571;-71
2021/03/29 00:24:12;;;;;;;10.95;5.18;;;11.50;99.90;;;;;;5064403;28;20208;-72
2021/03/29 00:26:41;;;;;;;12.20;6.32;;;11.50;99.90;;;;;;5060959;28;20261;-71
2021/03/29 00:29:09;;;;;;;20.33;7.13;;;11.40;99.90;;;;;;5058166;28;20263;-71
2021/03/29 00:31:36;;;;;;;9.98;5.90;;;11.40;99.90;;;;;;5066511;28;20207;-73
2021/03/29 00:34:04;;;;;;;12.93;5.28;;;11.40;99.90;;;;;;5060911;28;20294;-70
2021/03/29 00:36:33;;;;;;;7.90;6.40;;;11.50;99.90;;;;;;5072832;28;20299;-70
2021/03/29 00:39:05;;;;;;;11.27;6.18;;;11.50;99.90;;;;;;5064712;28;20278;-71
2021/03/29 00:41:32;;;;;;;11.23;6.07;;;11.40;99.90;;;;;;5071994;28;20594;-71
2021/03/29 00:44:01;;;;;;;9.93;5.30;;;11.40;99.90;;;;;;5064611;28;20286;-71
2021/03/29 00:46:30;;;;;;;13.70;6.60;;;11.40;99.90;;;;;;5069347;28;20227;-71
2021/03/29 00:48:58;;;;;;;11.02;6.55;;;11.40;99.90;;;;;;5070092;28;20214;-71
2021/03/29 00:51:26;;;;;;;14.20;6.15;;;11.40;99.90;;;;;;5064029;28;20268;-71
2021/03/29 00:53:56;;;;;;;9.60;5.95;;;11.30;99.90;;;;;;5063475;28;20203;-71
2021/03/29 00:56:24;;;;;;;11.32;6.18;;;11.30;99.90;;;;;;5070521;28;20241;-71
2021/03/29 00:58:52;;;;;;;11.10;6.47;;;11.30;99.90;;;;;;5068638;28;20200;-71
2021/03/29 01:01:22;;;;;;;13.15;6.22;;;11.30;99.90;;;;;;5067148;28;20221;-71
2021/03/29 01:03:52;;;;;;;12.50;5.55;;;11.30;99.90;;;;;;5065681;28;20199;-71
2021/03/29 01:06:21;;;;;;;11.15;6.75;;;11.30;99.90;;;;;;5056692;28;20693;-71
2021/03/29 01:08:51;;;;;;;7.60;6.07;;;11.30;99.90;;;;;;5058346;28;20284;-72
2021/03/29 01:11:22;;;;;;;10.65;6.90;;;11.30;99.90;;;;;;5072304;28;20206;-71
2021/03/29 01:13:53;;;;;;;13.63;8.07;;;11.30;99.90;;;;;;5062342;28;20201;-71
2021/03/29 01:16:23;;;;;;;13.82;7.13;;;11.20;99.90;;;;;;5065845;28;20225;-71
2021/03/29 01:18:55;;;;;;;15.70;7.72;;;11.20;99.90;;;;;;5071747;28;20260;-71
2021/03/29 01:21:36;;;;;;;11.75;6.68;;;11.20;99.90;;;;;;5064654;28;20584;-71
2021/03/29 01:24:11;;;;;;;10.15;7.25;;;11.20;99.90;;;;;;5061819;28;20203;-72
2021/03/29 01:26:42;;;;;;;9.48;6.38;;;11.10;99.90;;;;;;5063309;28;20229;-71
2021/03/29 01:29:09;;;;;;;8.88;6.47;;;11.20;99.90;;;;;;5055593;28;20211;-71
2021/03/29 01:31:37;;;;;;;9.00;6.18;;;11.10;99.90;;;;;;5056893;28;20202;-71
2021/03/29 01:34:07;;;;;;;18.40;7.00;;;11.10;99.90;;;;;;5053179;28;20207;-72
2021/03/29 01:36:34;;;;;;;11.75;6.43;;;11.10;99.90;;;;;;5056457;28;20301;-72
2021/03/29 01:39:03;;;;;;;12.05;6.38;;;11.10;99.90;;;;;;5061797;28;20210;-71
2021/03/29 01:41:31;;;;;;;12.18;7.05;;;11.10;99.90;;;;;;5069678;28;21032;-71
2021/03/29 01:43:59;;;;;;;13.15;6.72;;;11.00;99.90;;;;;;5063429;28;20281;-71
2021/03/29 01:46:27;;;;;;;10.93;6.95;;;11.00;99.90;;;;;;5063985;28;20361;-72
2021/03/29 01:48:54;;;;;;;13.18;7.25;;;11.00;99.90;;;;;;5064422;28;20218;-70
2021/03/29 01:51:21;;;;;;;13.25;7.15;;;11.00;99.90;;;;;;5070010;28;20199;-70
2021/03/29 01:53:49;;;;;;;12.77;7.55;;;11.10;99.90;;;;;;5067302;28;20195;-70
2021/03/29 01:56:16;;;;;;;11.38;5.35;;;11.10;99.90;;;;;;5063107;28;20268;-70
2021/03/29 01:58:43;;;;;;;12.68;6.85;;;11.10;99.90;;;;;;5068733;28;20202;-69
2021/03/29 02:01:12;;;;;;;10.38;6.32;;;11.10;99.90;;;;;;5055551;28;20259;-70
2021/03/29 02:03:40;;;;;;;11.57;7.38;;;11.10;99.90;;;;;;5064257;28;20546;-70
2021/03/29 02:06:08;;;;;;;11.57;5.88;;;11.00;99.90;;;;;;5066230;28;20268;-72
2021/03/29 02:08:37;;;;;;;12.43;7.00;;;11.00;99.90;;;;;;5061778;28;20551;-70
2021/03/29 02:11:05;;;;;;;11.73;5.90;;;11.00;99.90;;;;;;5067302;28;20195;-71
2021/03/29 02:13:35;;;;;;;7.28;5.18;;;11.00;99.90;;;;;;5066828;28;20236;-71
2021/03/29 02:16:03;;;;;;;14.05;6.97;;;11.00;99.90;;;;;;5062698;28;20277;-71
2021/03/29 02:18:36;;;;;;;8.48;5.80;;;10.90;99.90;;;;;;5065048;28;20203;-71
2021/03/29 02:21:05;;;;;;;8.00;5.43;;;10.90;99.90;;;;;;5058721;28;20224;-70
2021/03/29 02:26:55;;;;;;;10.50;6.38;;;10.80;99.90;;;;;;5059664;28;20260;-70
2021/03/29 02:29:26;;;;;;;12.63;6.15;;;10.80;99.90;;;;;;5059183;28;20245;-70
2021/03/29 02:31:55;;;;;;;9.60;5.20;;;10.80;99.90;;;;;;5059508;28;20202;-70
2021/03/29 02:34:23;;;;;;;13.48;6.80;;;10.80;99.90;;;;;;5068030;28;20742;-70
2021/03/29 02:36:51;;;;;;;13.10;6.28;;;10.90;99.90;;;;;;5068687;28;20214;-71
2021/03/29 02:39:19;;;;;;;9.93;5.25;;;10.80;99.90;;;;;;5061148;28;20204;-70
2021/03/29 02:41:47;;;;;;;7.55;5.15;;;10.80;99.90;;;;;;5071878;28;20222;-71
2021/03/29 02:44:16;;;;;;;8.88;5.20;;;10.80;99.90;;;;;;5072537;28;20285;-70
2021/03/29 02:46:43;;;;;;;10.57;5.18;;;10.80;99.90;;;;;;5070459;28;20296;-69
2021/03/29 02:49:11;;;;;;;11.40;6.13;;;10.90;99.90;;;;;;5060475;28;20643;-72
2021/03/29 02:51:43;;;;;;;10.48;6.07;;;10.90;99.90;;;;;;5067732;28;20199;-70
2021/03/29 02:54:11;;;;;;;9.63;5.55;;;10.80;99.90;;;;;;5062016;28;20206;-70
2021/03/29 02:56:40;;;;;;;10.10;5.25;;;10.80;99.90;;;;;;5062943;28;20238;-71
2021/03/29 02:59:10;;;;;;;12.63;5.45;;;10.80;99.90;;;;;;5060897;28;20199;-70
2021/03/29 03:01:39;;;;;;;11.85;5.28;;;10.80;99.90;;;;;;5074685;28;20593;-70
2021/03/29 03:04:09;;;;;;;16.38;5.50;;;10.80;99.90;;;;;;5072927;28;20203;-71
2021/03/29 03:06:36;;;;;;;11.73;6.70;;;10.80;99.90;;;;;;5068778;28;20245;-71
2021/03/29 03:09:06;;;;;;;13.27;5.10;;;10.80;99.90;;;;;;5059341;28;20211;-71
2021/03/29 03:11:33;;;;;;;12.90;6.10;;;10.80;99.90;;;;;;5069587;28;20279;-72
2021/03/29 03:14:03;;;;;;;23.65;7.22;;;10.70;99.90;;;;;;5067485;28;20208;-71
2021/03/29 03:16:31;;;;;;;9.80;5.47;;;10.70;99.90;;;;;;5064381;28;20223;-71
2021/03/29 03:18:57;;;;;;;14.90;6.07;;;10.70;99.90;;;;;;5072745;28;20572;-71
2021/03/29 03:21:24;;;;;;;11.05;5.30;;;10.60;99.90;;;;;;5064380;28;20272;-71
2021/03/29 03:23:52;;;;;;;16.17;6.10;;;10.60;99.90;;;;;;5070706;28;20256;-71
2021/03/29 03:26:20;;;;;;;12.02;4.82;;;10.60;99.90;;;;;;5065568;28;20236;-72
2021/03/29 03:28:47;;;;;;;9.82;5.05;;;10.70;99.90;;;;;;5068342;28;20203;-71
2021/03/29 03:31:14;;;;;;;8.70;4.78;;;10.70;99.90;;;;;;5070478;28;20209;-72
2021/03/29 03:33:41;;;;;;;10.57;5.18;;;10.70;99.90;;;;;;5056233;28;20654;-72
2021/03/29 03:36:08;;;;;;;7.78;4.25;;;10.70;99.90;;;;;;5062996;28;20287;-71
2021/03/29 03:38:38;;;;;;;5.97;3.63;;;10.80;99.90;;;;;;5063772;28;20214;-72
2021/03/29 03:41:07;;;;;;;9.43;5.28;;;10.80;99.90;;;;;;5057015;28;20227;-71
2021/03/29 03:43:37;;;;;;;10.90;4.85;;;10.80;99.90;;;;;;5058264;28;20204;-71
2021/03/29 03:46:07;;;;;;;9.13;5.00;;;10.80;99.90;;;;;;5070390;28;20226;-71
2021/03/29 03:48:34;;;;;;;6.90;3.65;;;10.90;99.90;;;;;;5061151;28;20269;-71
2021/03/29 03:51:02;;;;;;;13.65;4.35;;;10.90;99.90;;;;;;5058812;28;20245;-71
2021/03/29 03:53:30;;;;;;;10.05;5.20;;;10.90;99.90;;;;;;5063520;28;20208;-71
2021/03/29 03:55:59;;;;;;;7.32;4.15;;;11.00;99.90;;;;;;5071410;28;20579;-70
2021/03/29 03:58:26;;;;;;;15.30;5.00;;;11.00;99.90;;;;;;5073166;28;20691;-71
2021/03/29 04:00:56;;;;;;;11.77;4.28;;;11.00;99.90;;;;;;5064666;28;20215;-71
2021/03/29 04:03:23;;;;;;;7.38;3.90;;;11.10;99.90;;;;;;5064388;28;20210;-71
2021/03/29 04:05:50;;;;;;;7.82;3.90;;;11.10;99.90;;;;;;5069422;28;20589;-71
2021/03/29 04:08:17;;;;;;;22.17;4.68;;;11.10;99.90;;;;;;5069665;28;20204;-71
2021/03/29 04:10:46;;;;;;;11.20;4.10;;;11.20;99.90;;;;;;5067922;28;20219;-71
2021/03/29 04:13:15;;;;;;;9.48;4.60;;;11.20;99.90;;;;;;5063811;28;20252;-70
2021/03/29 04:15:42;;;;;;;6.18;3.95;;;11.20;99.90;;;;;;5064081;28;20228;-68
2021/03/29 04:18:10;;;;;;;9.90;4.15;;;11.20;99.90;;;;;;5071756;28;20203;-72
2021/03/29 04:20:37;;;;;;;10.75;5.28;;;11.30;99.90;;;;;;5071173;28;20219;-70
2021/03/29 04:23:04;;;;;;;13.27;4.40;;;11.30;99.90;;;;;;5070277;28;20204;-70
2021/03/29 04:25:31;;;;;;;10.50;4.43;;;11.30;99.90;;;;;;5064616;28;20243;-71
2021/03/29 04:27:57;;;;;;;8.75;4.38;;;11.30;99.90;;;;;;5066266;28;20202;-70
2021/03/29 04:30:26;;;;;;;11.60;4.88;;;11.30;99.90;;;;;;5062978;28;20203;-70
2021/03/29 04:32:53;;;;;;;9.10;4.07;;;11.30;99.90;;;;;;5067251;28;20228;-71
2021/03/29 04:35:21;;;;;;;10.65;4.90;;;11.30;99.90;;;;;;5067579;28;20224;-71
2021/03/29 04:37:48;;;;;;;14.68;6.20;;;11.30;99.90;;;;;;5070033;28;20198;-71
2021/03/29 04:40:16;;;;;;;9.65;4.32;;;11.30;99.90;;;;;;5067046;28;20223;-71
2021/03/29 04:42:42;;;;;;;10.40;5.40;;;11.30;99.90;;;;;;5064398;28;20207;-71
2021/03/29 04:45:11;;;;;;;10.93;5.03;;;11.40;99.90;;;;;;5068789;28;20281;-71
2021/03/29 04:47:37;;;;;;;6.35;3.53;;;11.40;99.90;;;;;;5064619;28;20286;-71
2021/03/29 04:50:05;;;;;;;8.70;4.70;;;11.40;99.90;;;;;;5072011;28;20211;-71
2021/03/29 04:52:35;;;;;;;9.90;4.75;;;11.40;99.90;;;;;;5053004;28;20261;-71
2021/03/29 04:55:02;;;;;;;9.73;3.90;;;11.40;99.90;;;;;;5061118;28;20204;-70
2021/03/29 04:57:29;;;;;;;12.15;4.45;;;11.50;99.90;;;;;;5073178;28;20223;-71
2021/03/29 04:59:55;;;;;;;10.25;3.90;;;11.50;99.90;;;;;;5072386;28;20199;-71
2021/03/29 05:02:22;;;;;;;7.65;4.85;;;11.40;99.90;;;;;;5072888;28;20211;-72
2021/03/29 05:04:49;;;;;;;12.13;4.32;;;11.40;99.90;;;;;;5072105;28;20222;-71
2021/03/29 05:07:16;;;;;;;13.88;5.85;;;11.50;99.90;;;;;;5069137;28;20576;-71
2021/03/29 05:09:45;;;;;;;10.52;4.55;;;11.50;99.90;;;;;;5071315;28;20208;-71
2021/03/29 05:12:15;;;;;;;16.35;5.93;;;11.50;99.90;;;;;;5072613;28;20319;-71
2021/03/29 05:14:42;;;;;;;11.93;5.18;;;11.50;99.90;;;;;;5070714;28;20209;-72
2021/03/29 05:17:10;;;;;;;9.55;5.25;;;11.50;99.90;;;;;;5072188;28;20228;-72
2021/03/29 05:19:39;;;;;;;5.50;4.10;;;11.50;99.90;;;;;;5066675;28;20232;-71
2021/03/29 05:22:07;;;;;;;11.93;4.68;;;11.40;99.90;;;;;;5072115;28;20702;-73
2021/03/29 05:24:35;;;;;;;8.70;4.63;;;11.50;99.90;;;;;;5069873;28;20203;-72
2021/03/29 05:27:03;;;;;;;14.13;5.70;;;11.60;99.90;;;;;;5069814;28;20591;-72
2021/03/29 05:29:40;;;;;;;15.48;5.45;;;11.60;99.90;;;;;;5071456;28;20253;-71
2021/03/29 05:32:13;;;;;;;10.80;4.38;;;11.60;99.90;;;;;;5068898;28;20264;-71
2021/03/29 05:34:40;;;;;;;7.72;4.28;;;11.60;99.90;;;;;;5070511;28;20203;-71
2021/03/29 05:37:07;;;;;;;11.05;4.10;;;11.60;99.90;;;;;;5065710;28;20324;-71
2021/03/29 05:39:34;;;;;;;9.70;4.50;;;11.60;99.90;;;;;;5066378;28;20290;-71
2021/03/29 05:42:00;;;;;;;9.45;4.30;;;11.70;99.90;;;;;;5069392;28;20214;-71
2021/03/29 05:44:30;;;;;;;16.10;4.80;;;11.70;99.90;;;;;;5069215;28;20212;-71
2021/03/29 05:46:57;;;;;;;8.27;4.20;;;11.80;99.90;;;;;;5067784;28;20303;-71
2021/03/29 05:49:25;;;;;;;10.60;4.75;;;11.80;99.90;;;;;;5069225;28;20654;-71
2021/03/29 05:51:52;;;;;;;10.25;4.57;;;11.90;99.90;;;;;;5069464;28;20193;-72
2021/03/29 05:54:19;;;;;;;9.50;4.93;;;11.90;99.90;;;;;;5068708;28;20635;-70
2021/03/29 05:56:47;;;;;;;8.75;5.32;;;11.90;99.90;;;;;;5070803;28;20267;-75
2021/03/29 05:59:17;;;;;;;10.68;4.55;;;12.00;99.90;;;;;;5069116;28;20611;-73
2021/03/29 06:01:46;;;;;;;12.82;5.68;;;12.00;99.90;;;;;;5072593;28;20225;-73
2021/03/29 06:04:14;;;;;;;9.93;4.82;;;12.00;99.90;;;;;;5062906;28;20196;-72
2021/03/29 06:06:42;;;;;;;17.08;4.40;;;12.00;99.90;;;;;;5065793;28;20224;-75
2021/03/29 06:09:09;;;;;;;9.52;4.50;;;12.00;99.90;;;;;;5067613;28;20293;-75
2021/03/29 06:11:38;;;;;;;12.63;4.63;;;12.00;99.90;;;;;;5066380;28;20237;-74
2021/03/29 06:14:13;;;;;;;10.05;4.82;;;12.00;99.90;;;;;;5070180;28;20216;-74
2021/03/29 06:17:01;;;;;;;8.68;4.57;;;12.10;99.90;;;;;;5065784;28;20227;-73
2021/03/29 06:19:40;;;;;;;9.25;4.97;;;12.20;99.90;;;;;;5067841;28;20205;-74
2021/03/29 06:22:10;;;;;;;13.02;4.97;;;12.20;99.90;;;;;;5067673;28;20671;-74
2021/03/29 06:25:08;;;;;;;8.07;4.10;;;12.20;99.90;;;;;;5070522;28;20200;-73
2021/03/29 06:27:41;;;;;;;8.25;4.25;;;12.30;99.90;;;;;;5068874;28;20726;-74
2021/03/29 06:30:30;;;;;;;6.53;4.88;;;12.40;99.90;;;;;;5067580;28;20211;-73
2021/03/29 06:33:07;;;;;;;9.00;4.30;;;12.60;99.90;;;;;;5055423;28;20210;-75
2021/03/29 06:35:37;;;;;;;9.70;4.90;;;12.70;99.90;;;;;;5066017;28;20768;-73
2021/03/29 06:38:09;;;;;;;9.55;4.63;;;12.80;99.90;;;;;;5074198;28;20200;-74
2021/03/29 06:40:37;;;;;;;9.30;4.18;;;12.70;99.90;;;;;;5067621;28;20227;-74
2021/03/29 06:43:20;;;;;;;11.85;4.60;;;12.70;99.90;;;;;;5073575;28;20204;-74
2021/03/29 06:45:48;;;;;;;9.60;4.72;;;12.70;99.90;;;;;;5068833;28;20229;-74
2021/03/29 06:48:24;;;;;;;11.32;5.18;;;12.90;99.90;;;;;;5068485;28;20211;-75
2021/03/29 06:51:05;;;;;;;17.90;5.75;;;13.10;99.90;;;;;;5062456;28;20326;-75
2021/03/29 06:53:31;;;;;;;9.02;5.47;;;13.10;99.90;;;;;;5065995;28;20219;-75
2021/03/29 06:56:19;;;;;;;9.15;4.43;;;13.20;99.90;;;;;;5064592;28;20251;-75
2021/03/29 06:58:46;;;;;;;11.45;4.53;;;13.10;99.90;;;;;;5071063;28;20259;-74
2021/03/29 07:01:17;;;;;;;10.30;4.43;;;13.20;99.90;;;;;;5065139;28;20226;-74
2021/03/29 07:03:46;;;;;;;7.07;4.25;;;13.30;99.90;;;;;;5074530;28;20213;-74
2021/03/29 07:06:15;;;;;;;11.35;5.30;;;13.20;99.90;;;;;;5064356;28;20233;-74
2021/03/29 07:08:44;;;;;;;12.95;5.25;;;13.20;99.90;;;;;;5066944;28;20203;-77
2021/03/29 07:11:13;;;;;;;8.05;4.18;;;13.30;99.90;;;;;;5072693;28;20203;-79
2021/03/29 07:13:41;;;;;;;11.15;5.05;;;13.60;99.90;;;;;;5060949;28;20217;-75
2021/03/29 07:16:08;;;;;;;10.82;5.07;;;13.70;99.90;;;;;;5071105;28;20235;-78
2021/03/29 07:18:36;;;;;;;10.68;4.95;;;13.90;99.90;;;;;;5061542;28;20768;-78
2021/03/29 07:21:05;;;;;;;14.90;4.72;;;13.90;99.90;;;;;;5067515;28;20732;-76
2021/03/29 07:23:33;;;;;;;9.20;4.55;;;14.20;99.90;;;;;;5070972;28;20666;-75
2021/03/29 07:26:00;;;;;;;8.93;4.63;;;14.60;99.00;;;;;;5064962;28;20219;-75
2021/03/29 07:28:29;;;;;;;8.57;4.18;;;15.50;96.80;;;;;;5065809;28;20289;-75
2021/03/29 07:31:01;;;;;;;9.68;4.78;;;15.40;96.40;;;;;;5070863;28;20606;-73
2021/03/29 07:33:54;;;;;;;9.35;4.95;;;14.90;96.80;;;;;;5067875;28;20290;-74
2021/03/29 07:36:41;;;;;;;7.95;4.10;;;14.70;97.30;;;;;;5065910;28;20250;-74
2021/03/29 07:39:09;;;;;;;10.07;4.45;;;15.10;97.00;;;;;;5067492;28;20283;-75
2021/03/29 07:41:36;;;;;;;7.57;4.05;;;15.00;96.40;;;;;;5060935;28;20690;-76
2021/03/29 07:44:17;;;;;;;13.23;5.00;;;15.00;96.30;;;;;;5065525;28;20229;-75
2021/03/29 07:46:47;;;;;;;8.07;5.10;;;14.60;97.00;;;;;;5066958;28;20226;-75
2021/03/29 07:49:45;;;;;;;10.60;4.50;;;14.20;98.10;;;;;;5069679;28;20593;-75
2021/03/29 07:52:46;;;;;;;8.57;4.78;;;14.20;98.50;;;;;;5068065;28;20191;-77
2021/03/29 07:55:25;;;;;;;9.18;4.88;;;14.60;98.20;;;;;;5022833;28;20220;-73
2021/03/29 07:58:06;;;;;;;12.90;5.43;;;14.80;97.60;;;;;;5061180;28;20203;-73
2021/03/29 08:00:59;;;;;;;9.10;4.78;;;14.80;97.60;;;;;;5059508;28;20199;-73
2021/03/29 08:03:41;;;;;;;8.65;4.95;;;15.00;97.30;;;;;;5057951;28;20256;-78
2021/03/29 08:06:40;;;;;;;14.00;5.57;;;15.60;96.80;;;;;;5067867;28;20706;-80
2021/03/29 08:09:10;;;;;;;7.35;5.32;;;16.10;95.10;;;;;;5072896;28;20228;-79
2021/03/29 08:12:03;;;;;;;10.55;5.45;;;15.80;95.20;;;;;;5067807;28;20344;-76
2021/03/29 08:14:39;;;;;;;10.50;5.18;;;16.00;94.80;;;;;;5070114;28;20208;-78
2021/03/29 08:17:45;;;;;;;11.45;5.18;;;16.00;94.80;;;;;;5075904;28;20220;-77
2021/03/29 08:20:32;;;;;;;11.95;5.72;;;16.40;94.60;;;;;;5065597;28;20292;-78
2021/03/29 08:23:37;;;;;;;12.20;5.03;;;16.30;93.70;;;;;;5069705;28;20546;-77
2021/03/29 08:26:36;;;;;;;7.60;4.65;;;16.50;94.20;;;;;;5072550;28;20473;-79
2021/03/29 08:29:31;;;;;;;8.88;5.10;;;16.80;93.20;;;;;;5060445;28;20205;-76
2021/03/29 08:32:13;;;;;;;9.23;4.43;;;17.30;92.20;;;;;;5071535;28;20633;-74
2021/03/29 08:34:49;;;;;;;5.67;4.07;;;18.10;91.40;;;;;;5064282;28;20487;-75
2021/03/29 08:37:25;;;;;;;14.07;5.10;;;18.80;90.70;;;;;;5071289;28;20471;-74
2021/03/29 08:39:53;;;;;;;8.20;4.17;;;19.50;88.90;;;;;;5070813;28;20499;-75
2021/03/29 08:42:23;;;;;;;6.20;4.80;;;19.80;87.20;;;;;;5071782;28;20542;-75
2021/03/29 08:44:52;;;;;;;10.93;4.77;;;19.50;86.10;;;;;;5065811;28;20658;-76
2021/03/29 08:47:20;;;;;;;12.23;5.17;;;19.20;87.20;;;;;;5060842;28;20540;-76
2021/03/29 08:49:52;;;;;;;11.30;4.40;;;19.50;87.20;;;;;;5068018;28;20466;-76
2021/03/29 08:52:19;;;;;;;9.13;4.33;;;19.80;85.60;;;;;;5062044;28;20444;-75
2021/03/29 08:54:51;;;;;;;7.47;4.47;;;20.00;85.50;;;;;;5058799;28;20513;-75
2021/03/29 08:57:21;;;;;;;6.97;4.40;;;20.20;84.70;;;;;;5068736;28;20454;-74
2021/03/29 08:59:53;;;;;;;10.80;4.10;;;20.20;84.40;;;;;;5056345;28;20452;-74
2021/03/29 09:02:21;;;;;;;11.80;4.67;;;19.80;84.40;;;;;;5060401;28;20492;-74
2021/03/29 09:04:56;;;;;;;5.80;4.37;;;20.00;84.60;;;;;;5063645;28;20484;-72
2021/03/29 09:07:29;;;;;;;6.90;4.47;;;19.80;85.30;;;;;;5068967;28;20937;-73
2021/03/29 09:09:58;;;;;;;9.47;4.30;;;20.30;85.10;;;;;;5056750;28;20460;-74
2021/03/29 09:12:27;;;;;;;6.90;3.87;;;20.30;82.70;;;;;;5071735;28;20516;-74
2021/03/29 09:14:55;;;;;;;10.47;4.83;;;20.20;84.20;;;;;;5064307;28;20454;-73
2021/03/29 09:17:23;;;;;;;6.10;3.73;;;19.80;83.80;;;;;;5071265;28;20449;-74
2021/03/29 09:19:50;;;;;;;12.30;3.93;;;20.10;85.60;;;;;;5071936;28;20537;-76
2021/03/29 09:22:34;;;;;;;10.47;4.87;;;21.10;83.60;;;;;;5060615;28;20496;-74
2021/03/29 09:25:02;;;;;;;9.77;4.87;;;21.40;82.10;;;;;;5059739;28;20994;-75
2021/03/29 09:27:33;;;;;;;10.67;5.13;;;21.40;80.70;;;;;;5067875;28;20438;-76
2021/03/29 09:30:02;;;;;;;7.80;4.13;;;20.90;80.80;;;;;;5069056;28;20476;-74
2021/03/29 09:32:32;;;;;;;5.93;4.17;;;20.60;82.30;;;;;;5057283;28;20818;-74
2021/03/29 09:35:06;;;;;;;10.33;4.67;;;19.60;84.30;;;;;;5068563;28;20450;-75
2021/03/29 09:37:33;;;;;;;6.43;4.27;;;20.00;84.80;;;;;;5065834;28;20485;-74
2021/03/29 09:40:01;;;;;;;11.23;4.23;;;19.50;85.60;;;;;;5062216;28;20445;-73
2021/03/29 09:42:38;;;;;;;8.63;4.53;;;19.60;86.70;;;;;;5071611;28;20490;-72
2021/03/29 09:45:08;;;;;;;6.60;4.83;;;19.60;87.30;;;;;;5066740;28;20935;-73
2021/03/29 09:47:35;;;;;;;7.83;3.97;;;20.60;86.50;;;;;;5061474;28;20496;-73
2021/03/29 09:50:04;;;;;;;6.03;4.50;;;20.70;84.20;;;;;;5066257;28;20524;-74
2021/03/29 09:52:36;;;;;;;8.20;4.93;;;21.20;83.70;;;;;;5060547;28;20488;-73
2021/03/29 09:55:03;;;;;;;9.83;5.07;;;20.40;83.70;;;;;;5060756;28;20452;-73
2021/03/29 09:57:36;;;;;;;8.27;4.63;;;20.00;84.30;;;;;;5055304;28;20479;-73
2021/03/29 10:00:14;;;;;;;8.47;4.80;;;19.70;86.10;;;;;;5053904;28;20883;-72
2021/03/29 10:02:41;;;;;;;9.50;4.23;;;19.90;86.30;;;;;;5055993;28;20487;-71
2021/03/29 10:05:11;;;;;;;9.37;5.27;;;20.10;86.20;;;;;;5062258;28;20483;-73
2021/03/29 10:07:49;;;;;;;6.80;3.70;;;19.70;86.80;;;;;;5068353;28;20442;-76
2021/03/29 10:10:25;;;;;;;9.40;4.50;;;20.00;87.50;;;;;;5057606;28;20872;-75
2021/03/29 10:13:05;;;;;;;7.17;4.40;;;19.90;86.70;;;;;;5069402;28;20509;-73
2021/03/29 10:15:34;;;;;;;11.03;5.37;;;19.90;86.90;;;;;;5065915;28;20933;-73
2021/03/29 10:18:12;;;;;;;8.50;4.40;;;20.50;86.80;;;;;;5066692;28;20477;-73
2021/03/29 10:20:41;;;;;;;8.97;4.90;;;20.40;84.80;;;;;;5061147;28;20445;-74
2021/03/29 10:23:24;;;;;;;9.10;4.60;;;20.10;86.90;;;;;;5068400;28;20441;-74
2021/03/29 10:26:14;;;;;;;7.63;4.03;;;20.40;87.50;;;;;;5064025;28;20467;-73
2021/03/29 10:28:55;;;;;;;8.43;4.17;;;20.80;86.20;;;;;;5055775;28;20545;-73
2021/03/29 10:31:22;;;;;;;10.07;4.60;;;21.30;85.00;;;;;;5066630;28;20461;-73
2021/03/29 10:33:49;;;;;;;9.63;5.03;;;21.10;85.10;;;;;;5064116;28;20498;-73
2021/03/29 10:36:17;;;;;;;6.67;4.30;;;20.70;85.70;;;;;;5065275;28;20480;-73
2021/03/29 10:38:45;;;;;;;9.40;4.80;;;20.50;87.40;;;;;;5069164;28;20949;-75
2021/03/29 10:41:12;;;;;;;7.90;4.47;;;20.60;87.30;;;;;;5058826;28;20502;-74
2021/03/29 10:43:40;;;;;;;5.60;4.00;;;20.70;86.60;;;;;;5066793;28;20458;-74
2021/03/29 10:46:07;;;;;;;8.60;4.50;;;20.60;86.90;;;;;;5069023;28;20473;-74
2021/03/29 10:48:36;;;;;;;11.00;5.40;;;20.40;87.80;;;;;;5057560;28;20477;-74
2021/03/29 10:51:05;;;;;;;7.87;4.50;;;20.00;88.60;;;;;;5070063;28;20437;-74
2021/03/29 10:53:32;;;;;;;13.07;5.80;;;19.80;89.70;;;;;;5065328;28;20611;-74
2021/03/29 10:55:59;;;;;;;6.50;4.80;;;19.40;90.20;;;;;;5061590;28;20605;-74
2021/03/29 10:58:26;;;;;;;7.07;5.10;;;19.40;90.60;;;;;;5058646;28;20459;-74
2021/03/29 11:00:53;;;;;;;9.40;5.07;;;19.20;90.80;;;;;;5058398;28;20537;-74
2021/03/29 11:03:19;;;;;;;6.80;5.13;;;18.80;91.60;;;;;;5069286;28;20459;-75
2021/03/29 11:05:47;;;;;;;10.90;5.23;;;18.50;92.00;;;;;;5073428;28;20469;-75
2021/03/29 11:08:17;;;;;;;6.40;4.60;;;18.70;92.20;;;;;;5063583;28;20445;-76
2021/03/29 11:10:44;;;;;;;7.03;5.30;;;18.70;92.00;;;;;;5066652;28;20456;-74
2021/03/29 11:13:12;;;;;;;10.37;4.93;;;18.90;92.50;;;;;;5073975;28;20433;-74
2021/03/29 11:15:42;;;;;;;7.90;4.50;;;19.40;91.90;;;;;;5074430;28;20469;-75
2021/03/29 11:18:12;;;;;;;9.83;5.77;;;19.50;91.40;;;;;;5066589;28;20449;-75
2021/03/29 11:20:38;;;;;;;6.57;5.00;;;19.30;91.50;;;;;;5074279;28;20437;-75
2021/03/29 11:23:09;;;;;;;6.37;5.03;;;19.30;91.60;;;;;;5075034;28;20445;-75
2021/03/29 11:25:36;;;;;;;12.57;6.30;;;18.90;92.10;;;;;;5068933;28;20466;-75
2021/03/29 11:28:03;;;;;;;7.73;5.23;;;19.00;92.40;;;;;;5064027;28;20437;-76
2021/03/29 11:30:29;;;;;;;7.40;4.70;;;19.20;92.00;;;;;;5064908;28;20526;-74
2021/03/29 11:32:57;;;;;;;7.70;4.50;;;19.20;92.30;;;;;;5062234;28;20450;-74
2021/03/29 11:35:24;;;;;;;22.13;16.70;;;19.00;92.50;;;;;;5067220;28;20588;-75
2021/03/29 11:37:51;;;;;;;7.77;5.37;;;19.00;92.50;;;;;;5067626;28;20452;-75
2021/03/29 11:40:18;;;;;;;8.30;4.83;;;18.90;92.50;;;;;;5070416;28;20503;-73
2021/03/29 11:42:45;;;;;;;9.80;5.07;;;18.90;92.80;;;;;;5067535;28;20473;-75
2021/03/29 11:45:12;;;;;;;12.77;5.33;;;19.00;92.70;;;;;;5072697;28;21016;-73
2021/03/29 11:47:40;;;;;;;11.03;5.40;;;19.00;92.50;;;;;;5073478;28;20449;-74
2021/03/29 11:50:20;;;;;;;10.57;5.70;;;18.90;92.70;;;;;;5072892;28;20441;-74
2021/03/29 11:52:46;;;;;;;8.07;5.40;;;19.00;92.80;;;;;;5069282;28;20449;-75
2021/03/29 11:55:14;;;;;;;8.13;5.43;;;19.00;92.80;;;;;;5073898;28;20555;-75
2021/03/29 11:57:43;;;;;;;9.80;5.73;;;18.90;92.90;;;;;;5069540;28;20445;-74
2021/03/29 12:00:28;;;;;;;11.60;5.60;;;18.90;93.10;;;;;;5066121;28;20473;-72
2021/03/29 12:03:02;;;;;;;8.20;4.97;;;19.10;93.00;;;;;;5065760;28;20500;-74
2021/03/29 12:05:31;;;;;;;7.17;5.10;;;19.30;92.90;;;;;;5072338;28;20492;-73
2021/03/29 12:08:15;;;;;;;6.90;5.30;;;19.10;92.80;;;;;;5073613;28;20445;-74
2021/03/29 12:13:35;;;;;;;7.40;5.07;;;18.90;93.40;;;;;;5069167;28;20425;-72
2021/03/29 12:16:05;;;;;;;8.30;5.00;;;18.80;93.50;;;;;;5067755;28;21004;-75
2021/03/29 12:18:44;;;;;;;7.77;5.00;;;18.90;93.70;;;;;;5066170;28;20445;-73
2021/03/29 12:21:16;;;;;;;8.50;5.37;;;19.00;93.80;;;;;;5066004;28;20474;-74
2021/03/29 12:23:47;;;;;;;8.50;5.50;;;19.00;93.50;;;;;;5065878;28;20851;-76
2021/03/29 12:26:14;;;;;;;10.80;5.73;;;18.80;93.60;;;;;;5059721;28;20528;-74
2021/03/29 12:28:46;;;;;;;4.63;3.90;;;19.00;93.80;;;;;;5073644;28;20473;-75
2021/03/29 12:31:14;;;;;;;6.47;5.10;;;19.00;93.60;;;;;;5070696;28;20510;-74
2021/03/29 12:33:41;;;;;;;8.90;4.73;;;19.10;93.80;;;;;;5064527;28;20457;-75
2021/03/29 12:36:12;;;;;;;6.30;4.20;;;19.10;93.70;;;;;;5064211;28;20529;-76
2021/03/29 12:38:42;;;;;;;6.83;4.87;;;19.10;93.50;;;;;;5061627;28;20437;-73
2021/03/29 12:41:11;;;;;;;7.30;4.90;;;19.20;93.50;;;;;;5063702;28;20484;-74
2021/03/29 12:43:41;;;;;;;7.60;5.00;;;19.30;93.50;;;;;;5059634;28;20924;-73
2021/03/29 12:46:09;;;;;;;7.13;4.70;;;19.20;93.50;;;;;;5064191;28;20848;-72
2021/03/29 12:48:38;;;;;;;9.00;5.10;;;19.20;93.40;;;;;;5061280;28;20450;-73
2021/03/29 12:51:07;;;;;;;16.10;5.97;;;19.40;93.50;;;;;;5064907;28;20438;-74
2021/03/29 12:53:37;;;;;;;8.90;4.63;;;19.20;93.30;;;;;;5065223;28;20449;-73
2021/03/29 12:56:04;;;;;;;7.10;5.40;;;19.30;93.60;;;;;;5063557;28;20478;-74
2021/03/29 12:58:34;;;;;;;8.90;4.93;;;19.40;93.60;;;;;;5065986;28;20480;-77
2021/03/29 13:01:05;;;;;;;8.27;5.70;;;19.30;93.30;;;;;;5059987;28;20442;-74
2021/03/29 13:03:36;;;;;;;7.83;5.00;;;19.40;93.30;;;;;;5057833;28;20454;-71
2021/03/29 13:06:10;;;;;;;8.20;5.60;;;19.40;93.20;;;;;;5055344;28;20565;-75
2021/03/29 13:08:37;;;;;;;6.87;4.93;;;19.50;93.40;;;;;;5059957;28;20444;-74